createdAt,value
2019-02-04T00:02:40.541Z,99289.00
2019-02-04T00:05:44.974Z,99296.82
2019-02-04T00:08:49.398Z,99287.84
2019-02-04T00:11:54.139Z,99289.66
2019-02-04T00:14:58.868Z,99301.46
2019-02-04T00:18:04.623Z,99300.77
2019-02-04T00:21:09.352Z,99297.71
2019-02-04T00:24:13.796Z,99302.66
2019-02-04T00:27:18.212Z,99297.69
2019-02-04T00:30:25.839Z,99306.47
2019-02-04T00:33:30.259Z,99312.79
2019-02-04T00:36:35.052Z,99315.73
2019-02-04T00:39:39.491Z,99310.08
2019-02-04T00:42:43.920Z,99308.13
2019-02-04T00:45:48.361Z,99307.50
2019-02-04T00:48:53.053Z,99315.10
2019-02-04T00:51:57.497Z,99311.07
2019-02-04T00:55:02.228Z,99316.89
2019-02-04T00:58:06.722Z,99317.85
2019-02-04T01:01:11.158Z,99316.47
2019-02-04T01:04:15.891Z,99316.07
2019-02-04T01:07:20.327Z,99316.27
2019-02-04T01:10:31.539Z,99324.00
2019-02-04T01:13:36.225Z,99321.78
2019-02-04T01:16:41.004Z,99325.58
2019-02-04T01:19:45.435Z,99326.33
2019-02-04T01:22:50.220Z,99331.11
2019-02-04T01:25:54.721Z,99343.35
2019-02-04T01:28:59.161Z,99346.36
2019-02-04T01:32:03.587Z,99346.86
2019-02-04T01:35:08.215Z,99343.98
2019-02-04T01:38:12.945Z,99344.63
2019-02-04T01:41:17.378Z,99352.45
2019-02-04T01:44:21.866Z,99352.08
2019-02-04T01:47:26.627Z,99365.31
2019-02-04T01:50:31.062Z,99359.59
2019-02-04T01:53:35.513Z,99367.59
2019-02-04T01:56:40.320Z,99371.32
2019-02-04T01:59:44.741Z,99370.70
2019-02-04T02:02:49.245Z,99367.56
2019-02-04T02:05:53.675Z,99369.64
2019-02-04T02:08:58.115Z,99367.99
2019-02-04T02:12:02.547Z,99367.66
2019-02-04T02:15:09.717Z,99372.19
2019-02-04T02:18:14.453Z,99378.97
2019-02-04T02:21:18.897Z,99382.19
2019-02-04T02:24:23.331Z,99380.69
2019-02-04T02:27:27.773Z,99379.88
2019-02-04T02:30:33.541Z,99387.37
2019-02-04T02:33:37.988Z,99393.35
2019-02-04T02:36:42.705Z,99391.09
2019-02-04T02:39:47.132Z,99388.30
2019-02-04T02:42:51.882Z,99384.47
2019-02-04T02:45:56.582Z,99389.51
2019-02-04T02:49:01.026Z,99385.23
2019-02-04T02:52:05.870Z,99384.98
2019-02-04T02:55:17.206Z,99386.67
2019-02-04T02:58:21.706Z,99390.08
2019-02-04T03:01:26.147Z,99392.70
2019-02-04T03:04:30.834Z,99388.66
2019-02-04T03:07:35.280Z,99386.94
2019-02-04T03:10:39.730Z,99395.75
2019-02-04T03:13:44.174Z,99404.80
2019-02-04T03:16:49.243Z,99398.44
2019-02-04T03:19:53.675Z,99401.42
2019-02-04T03:22:58.539Z,99405.32
2019-02-04T03:26:03.245Z,99400.73
2019-02-04T03:29:07.679Z,99402.03
2019-02-04T03:32:12.385Z,99405.89
2019-02-04T03:35:16.816Z,99406.86
2019-02-04T03:38:21.355Z,99413.26
2019-02-04T03:41:25.755Z,99405.97
2019-02-04T03:44:30.489Z,99409.80
2019-02-04T03:47:34.926Z,99412.03
2019-02-04T03:50:39.645Z,99421.02
2019-02-04T03:53:44.095Z,99425.70
2019-02-04T03:56:48.800Z,99427.73
2019-02-04T03:59:53.530Z,99433.23
2019-02-04T04:02:58.261Z,99434.02
2019-02-04T04:06:03.082Z,99432.76
2019-02-04T04:09:08.491Z,99432.44
2019-02-04T04:12:13.274Z,99441.38
2019-02-04T04:15:18.307Z,99442.17
2019-02-04T04:18:23.043Z,99435.34
2019-02-04T04:21:27.468Z,99441.25
2019-02-04T04:24:31.905Z,99434.52
2019-02-04T04:27:36.622Z,99436.03
2019-02-04T04:30:41.052Z,99428.98
2019-02-04T04:33:45.770Z,99427.34
2019-02-04T04:36:50.202Z,99426.97
2019-02-04T04:39:54.638Z,99435.73
2019-02-04T04:42:59.070Z,99441.86
2019-02-04T04:46:03.773Z,99441.03
2019-02-04T04:49:08.209Z,99439.14
2019-02-04T04:52:12.659Z,99446.31
2019-02-04T04:55:26.435Z,99450.01
2019-02-04T04:58:31.028Z,99452.34
2019-02-04T05:01:35.453Z,99452.93
2019-02-04T05:04:40.249Z,99450.20
2019-02-04T05:07:44.768Z,99452.06
2019-02-04T05:10:49.210Z,99453.55
2019-02-04T05:13:53.943Z,99453.36
2019-02-04T05:16:58.660Z,99461.97
2019-02-04T05:20:03.105Z,99452.33
2019-02-04T05:23:07.550Z,99449.26
2019-02-04T05:26:12.262Z,99450.13
2019-02-04T05:29:16.703Z,99441.77
2019-02-04T05:32:21.146Z,99447.23
2019-02-04T05:35:25.919Z,99445.95
2019-02-04T05:38:30.372Z,99447.96
2019-02-04T05:41:35.074Z,99450.52
2019-02-04T05:44:39.802Z,99440.45
2019-02-04T05:47:44.636Z,99444.78
2019-02-04T05:50:49.379Z,99450.13
2019-02-04T05:53:53.815Z,99452.50
2019-02-04T05:56:58.521Z,99462.58
2019-02-04T06:00:03.352Z,99462.16
2019-02-04T06:03:07.793Z,99458.92
2019-02-04T06:06:12.510Z,99459.16
2019-02-04T06:09:17.252Z,99461.12
2019-02-04T06:12:22.075Z,99465.72
2019-02-04T06:15:43.093Z,99466.09
2019-02-04T06:18:47.814Z,99469.70
2019-02-04T06:21:52.254Z,99470.53
2019-02-04T06:24:56.706Z,99470.72
2019-02-04T06:28:01.418Z,99478.14
2019-02-04T06:31:06.126Z,99472.95
2019-02-04T06:34:10.577Z,99474.49
2019-02-04T06:37:15.292Z,99489.52
2019-02-04T06:40:20.018Z,99489.60
2019-02-04T06:43:24.825Z,99496.22
2019-02-04T06:46:29.572Z,99490.11
2019-02-04T06:49:34.303Z,99491.79
2019-02-04T06:52:39.038Z,99499.69
2019-02-04T06:55:43.478Z,99506.27
2019-02-04T06:58:47.915Z,99503.64
2019-02-04T07:01:52.715Z,99507.78
2019-02-04T07:04:57.294Z,99503.36
2019-02-04T07:08:01.973Z,99504.30
2019-02-04T07:11:06.417Z,99498.62
2019-02-04T07:14:10.864Z,99503.94
2019-02-04T07:17:15.308Z,99501.97
2019-02-04T07:20:25.742Z,99499.34
2019-02-04T07:23:30.438Z,99499.31
2019-02-04T07:26:35.259Z,99500.66
2019-02-04T07:29:39.701Z,99498.04
2019-02-04T07:32:44.225Z,99493.95
2019-02-04T07:35:49.377Z,99500.36
2019-02-04T07:38:53.816Z,99502.78
2019-02-04T07:41:58.262Z,99499.52
2019-02-04T07:45:03.151Z,99508.08
2019-02-04T07:48:07.598Z,99510.70
2019-02-04T07:51:12.302Z,99506.05
2019-02-04T07:54:16.740Z,99503.63
2019-02-04T07:57:21.456Z,99501.88
2019-02-04T08:00:34.374Z,99486.09
2019-02-04T08:03:38.816Z,99500.14
2019-02-04T08:06:43.838Z,99500.06
2019-02-04T08:09:48.344Z,99512.77
2019-02-04T08:13:00.887Z,99507.41
2019-02-04T08:15:59.674Z,99510.03
2019-02-04T08:19:04.395Z,99512.64
2019-02-04T08:22:08.834Z,99507.77
2019-02-04T08:25:17.134Z,99507.92
2019-02-04T08:28:22.390Z,99508.86
2019-02-04T08:31:26.823Z,99511.05
2019-02-04T08:34:31.531Z,99519.83
2019-02-04T08:37:35.970Z,99526.17
2019-02-04T08:40:40.406Z,99525.91
2019-02-04T08:43:44.856Z,99520.80
2019-02-04T08:46:49.289Z,99520.33
2019-02-04T08:49:58.274Z,99519.20
2019-02-04T08:52:59.890Z,99528.72
2019-02-04T08:56:04.770Z,99530.88
2019-02-04T08:59:09.478Z,99527.06
2019-02-04T09:02:13.906Z,99519.81
2019-02-04T09:05:20.160Z,99521.11
2019-02-04T09:08:24.617Z,99525.66
2019-02-04T09:11:29.426Z,99522.77
2019-02-04T09:14:34.579Z,99521.25
2019-02-04T09:17:39.037Z,99526.61
2019-02-04T09:20:43.640Z,99530.21
2019-02-04T09:23:48.467Z,99532.60
2019-02-04T09:26:54.163Z,99531.34
2019-02-04T09:29:58.624Z,99529.50
2019-02-04T09:33:03.774Z,99528.11
2019-02-04T09:36:08.503Z,99522.12
2019-02-04T09:39:13.081Z,99516.48
2019-02-04T09:42:18.064Z,99511.32
2019-02-04T09:45:26.909Z,99506.39
2019-02-04T09:48:28.969Z,99505.42
2019-02-04T09:51:33.697Z,99487.45
2019-02-04T09:54:38.142Z,99483.56
2019-02-04T09:57:42.577Z,99484.75
2019-02-04T10:00:47.290Z,99483.08
2019-02-04T10:03:51.793Z,99461.56
2019-02-04T10:06:56.229Z,99465.82
2019-02-04T10:10:00.951Z,99461.21
2019-02-04T10:13:06.697Z,99462.95
2019-02-04T10:16:11.735Z,99459.02
2019-02-04T10:19:16.689Z,99457.64
2019-02-04T10:22:21.967Z,99462.45
2019-02-04T10:25:33.729Z,99462.47
2019-02-04T10:28:38.179Z,99463.80
2019-02-04T10:31:42.985Z,99452.80
2019-02-04T10:34:47.453Z,99457.00
2019-02-04T10:37:52.465Z,99472.18
2019-02-04T10:40:56.913Z,99475.27
2019-02-04T10:44:02.413Z,99474.22
2019-02-04T10:47:07.272Z,99466.55
2019-02-04T10:50:30.965Z,99459.66
2019-02-04T10:53:35.432Z,99466.38
2019-02-04T10:56:40.184Z,99450.67
2019-02-04T10:59:44.945Z,99447.06
2019-02-04T11:02:49.383Z,99440.23
2019-02-04T11:05:54.079Z,99435.61
2019-02-04T11:08:58.536Z,99427.75
2019-02-04T11:12:03.216Z,99410.45
2019-02-04T11:15:12.552Z,99407.59
2019-02-04T11:18:17.479Z,99408.75
2019-02-04T11:21:22.224Z,99414.06
2019-02-04T11:24:26.655Z,99416.81
2019-02-04T11:27:31.095Z,99403.68
2019-02-04T11:30:48.802Z,99401.56
2019-02-04T11:33:53.234Z,99398.31
2019-02-04T11:36:57.961Z,99394.66
2019-02-04T11:40:02.688Z,99396.56
2019-02-04T11:43:07.997Z,99392.68
2019-02-04T11:46:12.436Z,99387.80
2019-02-04T11:49:16.863Z,99379.59
2019-02-04T11:52:21.628Z,99367.94
2019-02-04T11:55:26.064Z,99376.57
2019-02-04T11:58:30.870Z,99370.10
2019-02-04T12:01:35.312Z,99369.52
2019-02-04T12:04:40.135Z,99373.05
2019-02-04T12:07:44.861Z,99366.13
2019-02-04T12:10:57.361Z,99356.45
2019-02-04T12:14:02.199Z,99342.98
2019-02-04T12:17:06.715Z,99340.56
2019-02-04T12:20:15.609Z,99330.93
2019-02-04T12:23:20.109Z,99326.66
2019-02-04T12:26:24.549Z,99321.59
2019-02-04T12:29:29.233Z,99318.44
2019-02-04T12:32:33.965Z,99309.88
2019-02-04T12:35:38.705Z,99300.20
2019-02-04T12:38:43.422Z,99299.56
2019-02-04T12:41:50.612Z,99299.68
2019-02-04T12:44:54.013Z,99301.23
2019-02-04T12:48:00.867Z,99301.34
2019-02-04T12:51:05.294Z,99295.28
2019-02-04T12:54:09.730Z,99294.99
2019-02-04T12:57:14.446Z,99282.08
2019-02-04T13:00:22.399Z,99278.83
2019-02-04T13:03:27.114Z,99271.94
2019-02-04T13:06:31.572Z,99268.13
2019-02-04T13:09:35.995Z,99276.48
2019-02-04T13:12:40.434Z,99271.59
2019-02-04T13:15:45.319Z,99278.34
2019-02-04T13:18:49.750Z,99278.53
2019-02-04T13:21:54.181Z,99277.05
2019-02-04T13:24:58.887Z,99284.72
2019-02-04T13:28:03.399Z,99273.56
2019-02-04T13:31:08.313Z,99277.64
2019-02-04T13:34:13.079Z,99270.05
2019-02-04T13:37:17.813Z,99271.70
2019-02-04T13:40:29.969Z,99255.72
2019-02-04T13:43:34.755Z,99261.06
2019-02-04T13:46:39.490Z,99260.47
2019-02-04T13:49:44.376Z,99253.58
2019-02-04T13:52:49.454Z,99253.05
2019-02-04T13:55:53.896Z,99251.02
2019-02-04T13:58:58.337Z,99256.66
2019-02-04T14:02:02.781Z,99248.08
2019-02-04T14:05:08.567Z,99249.61
2019-02-04T14:08:13.282Z,99259.38
2019-02-04T14:11:17.725Z,99261.75
2019-02-04T14:14:22.225Z,99256.65
2019-02-04T14:17:26.991Z,99256.86
2019-02-04T14:20:31.512Z,99259.27
2019-02-04T14:23:35.959Z,99267.20
2019-02-04T14:26:40.387Z,99264.75
2019-02-04T14:29:45.093Z,99259.45
2019-02-04T14:32:49.531Z,99257.30
2019-02-04T14:35:53.976Z,99254.20
2019-02-04T14:38:58.515Z,99259.59
2019-02-04T14:42:02.984Z,99255.78
2019-02-04T14:45:32.974Z,99246.91
2019-02-04T14:48:56.727Z,99241.75
2019-02-04T14:52:25.405Z,99241.46
2019-02-04T14:55:52.848Z,99248.84
2019-02-04T14:59:05.058Z,99252.38
2019-02-04T15:02:44.393Z,99251.92
2019-02-04T15:06:17.437Z,99242.57
2019-02-04T15:09:32.359Z,99241.38
2019-02-04T15:13:08.309Z,99243.30
2019-02-04T15:16:36.655Z,99245.51
2019-02-04T15:20:03.973Z,99246.98
2019-02-04T15:23:16.091Z,99249.91
2019-02-04T15:26:45.971Z,99257.47
2019-02-04T15:29:58.653Z,99251.93
2019-02-04T15:33:16.242Z,99255.08
2019-02-04T15:36:45.993Z,99255.14
2019-02-04T15:39:55.369Z,99257.20
2019-02-04T15:43:10.461Z,99256.98
2019-02-04T15:46:31.694Z,99253.33
2019-02-04T15:50:01.726Z,99249.03
2019-02-04T15:53:06.702Z,99248.52
2019-02-04T15:56:11.196Z,99250.79
2019-02-04T15:59:15.640Z,99246.09
2019-02-04T16:02:20.332Z,99245.47
2019-02-04T16:05:24.763Z,99245.14
2019-02-04T16:08:29.196Z,99241.14
2019-02-04T16:11:33.904Z,99231.34
2019-02-04T16:14:38.344Z,99235.87
2019-02-04T16:17:43.163Z,99238.73
2019-02-04T16:20:47.592Z,99244.98
2019-02-04T16:23:52.318Z,99244.27
2019-02-04T16:26:56.748Z,99246.21
2019-02-04T16:30:01.667Z,99237.51
2019-02-04T16:33:06.449Z,99241.52
2019-02-04T16:36:10.876Z,99237.63
2019-02-04T16:39:15.587Z,99239.68
2019-02-04T16:42:20.013Z,99244.57
2019-02-04T16:45:25.885Z,99243.74
2019-02-04T16:48:30.328Z,99247.41
2019-02-04T16:51:35.117Z,99239.78
2019-02-04T16:54:39.568Z,99237.72
2019-02-04T16:57:44.360Z,99249.86
2019-02-04T17:00:48.792Z,99250.77
2019-02-04T17:03:53.520Z,99252.60
2019-02-04T17:06:57.951Z,99248.92
2019-02-04T17:10:02.667Z,99251.14
2019-02-04T17:13:07.097Z,99254.61
2019-02-04T17:16:11.533Z,99252.17
2019-02-04T17:19:15.970Z,99258.11
2019-02-04T17:22:20.404Z,99260.84
2019-02-04T17:25:24.981Z,99262.59
2019-02-04T17:28:29.494Z,99264.73
2019-02-04T17:31:33.916Z,99263.42
2019-02-04T17:34:38.670Z,99263.72
2019-02-04T17:37:43.104Z,99260.83
2019-02-04T17:40:47.822Z,99263.09
2019-02-04T17:43:52.562Z,99266.41
2019-02-04T17:46:57.375Z,99263.34
2019-02-04T17:50:02.126Z,99263.85
2019-02-04T17:53:06.879Z,99269.04
2019-02-04T17:56:12.107Z,99274.15
2019-02-04T17:59:16.841Z,99274.69
2019-02-04T18:02:21.589Z,99266.63
2019-02-04T18:05:26.071Z,99271.58
2019-02-04T18:08:30.813Z,99271.50
2019-02-04T18:11:35.539Z,99277.20
2019-02-04T18:14:42.050Z,99282.54
2019-02-04T18:17:46.141Z,99282.89
2019-02-04T18:20:50.857Z,99285.09
2019-02-04T18:23:55.287Z,99288.11
2019-02-04T18:26:59.726Z,99281.43
2019-02-04T18:30:07.204Z,99280.69
2019-02-04T18:33:11.646Z,99276.20
2019-02-04T18:36:16.459Z,99282.01
2019-02-04T18:39:20.890Z,99279.61
2019-02-04T18:42:25.325Z,99287.47
2019-02-04T18:45:35.279Z,99290.45
2019-02-04T18:48:39.712Z,99284.61
2019-02-04T18:51:44.223Z,99280.66
2019-02-04T18:54:48.935Z,99284.19
2019-02-04T18:57:54.089Z,99283.76
2019-02-04T19:00:58.815Z,99281.00
2019-02-04T19:04:03.645Z,99284.60
2019-02-04T19:07:08.159Z,99289.20
2019-02-04T19:10:20.175Z,99287.80
2019-02-04T19:13:35.444Z,99285.58
2019-02-04T19:16:30.856Z,99286.00
2019-02-04T19:19:35.298Z,99288.42
2019-02-04T19:22:40.012Z,99281.41
2019-02-04T19:25:44.742Z,99290.09
2019-02-04T19:28:50.915Z,99285.85
2019-02-04T19:31:55.601Z,99281.31
2019-02-04T19:35:00.368Z,99278.88
2019-02-04T19:38:05.716Z,99275.89
2019-02-04T19:41:10.459Z,99285.70
2019-02-04T19:44:14.899Z,99280.16
2019-02-04T19:47:19.620Z,99284.87
2019-02-04T19:50:36.733Z,99296.44
2019-02-04T19:53:41.455Z,99297.41
2019-02-04T19:56:46.183Z,99297.09
2019-02-04T19:59:50.612Z,99288.02
2019-02-04T20:02:55.422Z,99291.92
2019-02-04T20:05:59.923Z,99298.24
2019-02-04T20:09:06.999Z,99284.75
2019-02-04T20:12:11.542Z,99290.45
2019-02-04T20:15:26.422Z,99293.39
2019-02-04T20:18:30.860Z,99288.09
2019-02-04T20:21:35.294Z,99295.34
2019-02-04T20:24:39.736Z,99289.29
2019-02-04T20:27:44.453Z,99297.36
2019-02-04T20:30:49.178Z,99299.71
2019-02-04T20:33:53.909Z,99301.81
2019-02-04T20:36:58.360Z,99298.11
2019-02-04T20:40:02.800Z,99304.66
2019-02-04T20:43:09.440Z,99310.38
2019-02-04T20:46:14.268Z,99308.50
2019-02-04T20:49:19.017Z,99318.58
2019-02-04T20:52:23.530Z,99314.34
2019-02-04T20:55:28.014Z,99308.28
2019-02-04T20:58:32.928Z,99314.64
2019-02-04T21:01:37.614Z,99309.70
2019-02-04T21:04:42.451Z,99313.98
2019-02-04T21:07:47.895Z,99313.22
2019-02-04T21:10:52.336Z,99317.75
2019-02-04T21:13:57.052Z,99317.41
2019-02-04T21:17:01.478Z,99318.30
2019-02-04T21:20:27.397Z,99317.54
2019-02-04T21:23:31.870Z,99320.36
2019-02-04T21:26:36.295Z,99316.37
2019-02-04T21:29:40.738Z,99319.03
2019-02-04T21:32:45.717Z,99315.19
2019-02-04T21:35:50.147Z,99315.19
2019-02-04T21:38:54.862Z,99316.42
2019-02-04T21:41:59.289Z,99321.37
2019-02-04T21:45:04.571Z,99322.70
2019-02-04T21:48:09.151Z,99324.25
2019-02-04T21:51:13.652Z,99323.34
2019-02-04T21:54:18.402Z,99317.08
2019-02-04T21:57:23.147Z,99314.36
2019-02-04T22:00:34.172Z,99313.64
2019-02-04T22:03:38.960Z,99301.88
2019-02-04T22:06:43.684Z,99295.26
2019-02-04T22:09:48.526Z,99312.16
2019-02-04T22:12:53.398Z,99309.32
2019-02-04T22:15:57.846Z,99302.77
2019-02-04T22:19:02.367Z,99312.12
2019-02-04T22:22:06.800Z,99311.86
2019-02-04T22:25:19.584Z,99311.86
2019-02-04T22:28:21.511Z,99318.45
2019-02-04T22:31:26.335Z,99323.02
2019-02-04T22:34:31.478Z,99318.91
2019-02-04T22:37:35.984Z,99313.97
2019-02-04T22:40:40.428Z,99317.53
2019-02-04T22:43:45.161Z,99315.40
2019-02-04T22:46:49.893Z,99312.78
2019-02-04T22:49:54.358Z,99324.16
2019-02-04T22:53:02.135Z,99316.09
2019-02-04T22:56:06.850Z,99317.09
2019-02-04T22:59:11.582Z,99319.39
2019-02-04T23:02:16.024Z,99323.66
2019-02-04T23:05:20.741Z,99329.12
2019-02-04T23:08:25.645Z,99321.27
2019-02-04T23:11:30.504Z,99316.55
2019-02-04T23:14:34.940Z,99319.98
2019-02-04T23:17:39.861Z,99326.69
2019-02-04T23:20:44.310Z,99314.57
2019-02-04T23:23:48.739Z,99322.77
2019-02-04T23:26:53.182Z,99319.25
2019-02-04T23:29:57.963Z,99323.50
2019-02-04T23:33:02.708Z,99336.00
2019-02-04T23:36:07.531Z,99331.97
2019-02-04T23:39:11.970Z,99329.94
2019-02-04T23:42:16.408Z,99338.37
2019-02-04T23:45:20.858Z,99331.34
2019-02-04T23:48:25.534Z,99331.64
2019-02-04T23:51:30.265Z,99330.70
2019-02-04T23:54:34.698Z,99326.73
2019-02-04T23:57:39.215Z,99321.58
